Time;durP1;ratioP1;P1;durP2;ratioP2;P2;SDS_P1;SDS_P2;PMS_P1;PMS_P2;Temp;Humidity;BMP_temperature;BMP_pressure;BME280_temperature;BME280_humidity;BME280_pressure;Samples;Min_cycle;Max_cycle;Signal;HPM_P1;HPM_P2
2021/12/07 00:01:56;;;;;;;3.45;1.70;;;;;;;;;;5055019;28;20036;-37
2021/12/07 00:04:21;;;;;;;4.18;2.38;;;;;;;;;;5055149;28;20021;-37
2021/12/07 00:06:47;;;;;;;3.83;2.22;;;;;;;;;;5054991;28;20476;-37
2021/12/07 00:09:13;;;;;;;6.05;2.28;;;;;;;;;;5054797;28;20033;-37
2021/12/07 00:11:39;;;;;;;9.38;2.20;;;;;;;;;;5054712;28;20033;-37
2021/12/07 00:14:12;;;;;;;2.10;1.48;;;;;;;;;;5054931;28;20025;-37
2021/12/07 00:16:37;;;;;;;5.18;2.47;;;;;;;;;;5054600;28;20025;-37
2021/12/07 00:19:03;;;;;;;7.32;2.28;;;;;;;;;;5054899;28;20025;-36
2021/12/07 00:21:29;;;;;;;5.40;1.73;;;;;;;;;;5054570;28;20075;-37
2021/12/07 00:23:55;;;;;;;6.15;2.35;;;;;;;;;;5054631;28;20045;-38
2021/12/07 00:26:20;;;;;;;8.70;2.33;;;;;;;;;;5054795;28;20094;-37
2021/12/07 00:28:47;;;;;;;5.22;1.55;;;;;;;;;;5054562;28;20081;-37
2021/12/07 00:31:21;;;;;;;3.25;1.27;;;;;;;;;;5053174;28;20067;-37
2021/12/07 00:33:53;;;;;;;3.47;2.42;;;;;;;;;;5052984;28;20471;-36
2021/12/07 00:36:19;;;;;;;5.38;2.13;;;;;;;;;;5054310;28;20047;-37
2021/12/07 00:38:44;;;;;;;3.40;1.52;;;;;;;;;;5052716;28;20060;-37
2021/12/07 00:41:10;;;;;;;6.80;2.13;;;;;;;;;;5054253;28;20407;-37
2021/12/07 00:43:36;;;;;;;3.80;1.60;;;;;;;;;;5053918;28;20041;-37
2021/12/07 00:46:02;;;;;;;3.65;1.80;;;;;;;;;;5054165;28;20029;-37
2021/12/07 00:48:29;;;;;;;2.83;2.05;;;;;;;;;;5054079;28;20540;-37
2021/12/07 00:50:56;;;;;;;1.27;1.17;;;;;;;;;;5053951;28;20032;-37
2021/12/07 00:53:23;;;;;;;5.25;1.52;;;;;;;;;;5054027;28;20024;-37
2021/12/07 00:55:52;;;;;;;2.65;1.25;;;;;;;;;;5053908;28;20029;-37
2021/12/07 00:58:21;;;;;;;2.78;1.63;;;;;;;;;;5054102;28;20029;-37
2021/12/07 01:00:57;;;;;;;2.47;1.60;;;;;;;;;;5052533;28;20029;-37
2021/12/07 01:03:24;;;;;;;5.68;1.77;;;;;;;;;;5052534;28;20089;-37
2021/12/07 01:05:53;;;;;;;2.92;1.98;;;;;;;;;;5053633;28;20017;-37
2021/12/07 01:08:51;;;;;;;2.45;1.60;;;;;;;;;;5053769;28;20550;-37
2021/12/07 01:24:50;;;;;;;2.63;1.85;;;;;;;;;;5052054;28;20040;-38
2021/12/07 01:27:17;;;;;;;3.95;1.73;;;;;;;;;;5051970;28;20032;-37
2021/12/07 01:29:46;;;;;;;3.58;1.98;;;;;;;;;;5053566;28;20025;-37
2021/12/07 01:47:54;;;;;;;5.40;1.60;;;;;;;;;;5051711;28;20029;-37
2021/12/07 02:01:05;;;;;;;5.90;2.53;;;;;;;;;;5051363;28;20491;-36
2021/12/07 02:03:31;;;;;;;4.93;2.53;;;;;;;;;;5051327;28;20036;-38
2021/12/07 02:05:57;;;;;;;5.32;2.80;;;;;;;;;;5051321;28;20029;-37
2021/12/07 02:08:22;;;;;;;5.05;2.40;;;;;;;;;;5051231;28;20047;-37
2021/12/07 02:10:51;;;;;;;2.95;1.90;;;;;;;;;;5051175;28;20029;-37
2021/12/07 02:15:57;;;;;;;5.85;2.22;;;;;;;;;;5050925;28;20032;-37
2021/12/07 02:18:24;;;;;;;4.05;2.28;;;;;;;;;;5050498;28;20106;-37
2021/12/07 02:20:50;;;;;;;4.95;2.50;;;;;;;;;;5052567;28;20053;-37
2021/12/07 02:23:16;;;;;;;3.20;1.83;;;;;;;;;;5052120;28;20056;-37
2021/12/07 02:25:42;;;;;;;6.95;2.30;;;;;;;;;;5052164;28;20056;-37
2021/12/07 02:28:13;;;;;;;5.05;2.33;;;;;;;;;;5052159;28;20549;-37
2021/12/07 02:30:39;;;;;;;10.48;3.75;;;;;;;;;;5050745;28;20036;-37
2021/12/07 02:33:04;;;;;;;9.45;3.70;;;;;;;;;;5050856;28;20391;-37
2021/12/07 02:35:30;;;;;;;3.80;2.17;;;;;;;;;;5050822;28;20471;-37
2021/12/07 02:37:59;;;;;;;6.85;1.63;;;;;;;;;;5050482;28;20025;-37
2021/12/07 02:40:27;;;;;;;4.95;2.72;;;;;;;;;;5052343;28;20024;-37
2021/12/07 02:42:53;;;;;;;9.25;2.88;;;;;;;;;;5050586;28;20410;-36
2021/12/07 02:45:20;;;;;;;5.68;2.70;;;;;;;;;;5052158;28;20033;-37
2021/12/07 02:47:45;;;;;;;5.13;2.85;;;;;;;;;;5051711;28;20056;-37
2021/12/07 02:50:13;;;;;;;4.82;2.88;;;;;;;;;;5050520;28;20510;-37
2021/12/07 02:52:39;;;;;;;3.22;1.73;;;;;;;;;;5050417;28;20028;-37
2021/12/07 02:55:07;;;;;;;3.22;2.45;;;;;;;;;;5050492;28;20025;-37
2021/12/07 02:57:34;;;;;;;2.50;1.58;;;;;;;;;;5051902;28;20032;-37
2021/12/07 03:00:08;;;;;;;1.70;1.35;;;;;;;;;;5050332;28;20643;-37
2021/12/07 03:02:40;;;;;;;6.82;2.42;;;;;;;;;;5050232;28;20033;-37
2021/12/07 03:05:20;;;;;;;3.45;2.28;;;;;;;;;;5051504;28;20525;-37
2021/12/07 03:26:38;;;;;;;1.02;0.98;;;;;;;;;;5049943;28;20033;-37
2021/12/07 03:29:03;;;;;;;3.17;1.77;;;;;;;;;;5049886;28;20029;-37
2021/12/07 03:31:30;;;;;;;2.95;1.60;;;;;;;;;;5033507;28;20115;-37
2021/12/07 03:33:57;;;;;;;1.92;1.60;;;;;;;;;;5051153;28;20474;-37
2021/12/07 03:36:26;;;;;;;1.83;1.52;;;;;;;;;;5049938;28;20036;-37
2021/12/07 03:38:53;;;;;;;2.03;1.40;;;;;;;;;;5049611;28;20089;-37
2021/12/07 03:41:20;;;;;;;5.90;2.00;;;;;;;;;;5049858;28;20067;-40
2021/12/07 03:43:45;;;;;;;3.42;1.27;;;;;;;;;;5049756;28;20162;-36
2021/12/07 03:46:13;;;;;;;3.55;2.38;;;;;;;;;;5049814;28;20036;-36
2021/12/07 03:48:40;;;;;;;1.50;1.35;;;;;;;;;;5049612;28;20476;-37
2021/12/07 03:51:06;;;;;;;2.65;1.38;;;;;;;;;;5049799;28;20363;-37
2021/12/07 03:53:33;;;;;;;5.25;2.25;;;;;;;;;;5049815;28;20013;-37
2021/12/07 03:55:59;;;;;;;6.03;2.80;;;;;;;;;;5050903;28;20021;-37
2021/12/07 03:58:26;;;;;;;2.45;1.85;;;;;;;;;;5049711;28;20025;-37
2021/12/07 04:00:51;;;;;;;3.35;2.13;;;;;;;;;;5050938;28;20104;-37
2021/12/07 04:03:19;;;;;;;3.88;1.80;;;;;;;;;;5049484;28;20460;-36
2021/12/07 04:05:47;;;;;;;3.85;2.13;;;;;;;;;;5050852;28;20048;-37
2021/12/07 04:08:17;;;;;;;6.47;2.15;;;;;;;;;;5049545;28;20028;-37
2021/12/07 04:10:43;;;;;;;2.58;2.25;;;;;;;;;;5049534;28;20124;-36
2021/12/07 04:13:09;;;;;;;4.18;2.30;;;;;;;;;;5049661;28;20104;-37
2021/12/07 04:15:35;;;;;;;4.00;1.25;;;;;;;;;;5051110;28;20112;-36
2021/12/07 04:18:00;;;;;;;5.30;2.30;;;;;;;;;;5049366;28;20514;-37
2021/12/07 04:20:26;;;;;;;2.45;1.55;;;;;;;;;;5049495;28;20036;-36
2021/12/07 04:22:51;;;;;;;5.25;1.80;;;;;;;;;;5049305;28;20044;-37
2021/12/07 04:25:17;;;;;;;6.47;2.00;;;;;;;;;;5050777;28;20053;-37
2021/12/07 04:27:43;;;;;;;6.00;1.48;;;;;;;;;;5050627;28;20033;-37
2021/12/07 04:30:10;;;;;;;1.10;1.00;;;;;;;;;;5050868;28;20055;-37
2021/12/07 04:32:36;;;;;;;4.22;1.52;;;;;;;;;;5050877;28;20104;-36
2021/12/07 04:35:02;;;;;;;2.05;0.93;;;;;;;;;;5050956;28;20133;-37
2021/12/07 04:37:27;;;;;;;3.70;1.67;;;;;;;;;;5050597;28;20482;-37
2021/12/07 04:39:53;;;;;;;4.07;1.58;;;;;;;;;;5050987;28;20139;-36
2021/12/07 04:42:18;;;;;;;2.05;1.17;;;;;;;;;;5054449;28;20090;-37
2021/12/07 04:44:51;;;;;;;3.25;1.92;;;;;;;;;;5054077;28;20029;-37
2021/12/07 04:47:29;;;;;;;1.42;1.27;;;;;;;;;;5054413;28;20036;-37
2021/12/07 04:50:22;;;;;;;2.10;1.75;;;;;;;;;;5054329;28;20086;-36
2021/12/07 04:58:10;;;;;;;3.15;1.10;;;;;;;;;;5054211;28;20036;-37
2021/12/07 05:00:36;;;;;;;2.60;2.05;;;;;;;;;;5053835;28;20023;-36
2021/12/07 05:03:05;;;;;;;1.30;0.93;;;;;;;;;;5053764;28;20033;-36
2021/12/07 05:05:35;;;;;;;2.03;1.30;;;;;;;;;;5054077;28;20151;-37
2021/12/07 05:08:05;;;;;;;0.80;0.80;;;;;;;;;;5053626;28;20480;-37
2021/12/07 05:10:34;;;;;;;8.43;1.48;;;;;;;;;;5054022;28;20036;-37
2021/12/07 05:24:05;;;;;;;2.92;1.67;;;;;;;;;;5052211;28;20071;-37
2021/12/07 05:37:39;;;;;;;10.27;4.20;;;;;;;;;;5053390;28;20412;-36
2021/12/07 05:40:13;;;;;;;2.60;1.42;;;;;;;;;;5053007;28;20090;-37
2021/12/07 05:42:40;;;;;;;9.00;3.10;;;;;;;;;;5052877;28;20091;-37
2021/12/07 05:45:07;;;;;;;3.83;1.48;;;;;;;;;;5053400;28;20168;-37
2021/12/07 05:47:32;;;;;;;5.43;1.95;;;;;;;;;;5053227;28;20032;-36
2021/12/07 05:49:58;;;;;;;5.47;2.03;;;;;;;;;;5052823;28;20384;-37
2021/12/07 05:52:24;;;;;;;1.63;1.30;;;;;;;;;;5051846;28;20021;-37
2021/12/07 05:54:49;;;;;;;1.40;1.30;;;;;;;;;;5052783;28;20036;-37
2021/12/07 05:57:14;;;;;;;6.13;1.88;;;;;;;;;;5053022;28;20029;-37
2021/12/07 05:59:40;;;;;;;3.97;1.63;;;;;;;;;;5052690;28;20504;-37
2021/12/07 06:02:05;;;;;;;5.43;2.25;;;;;;;;;;5052610;28;20086;-37
2021/12/07 06:04:31;;;;;;;9.40;2.20;;;;;;;;;;5052859;28;20060;-36
2021/12/07 06:06:57;;;;;;;4.57;2.05;;;;;;;;;;5052532;28;20451;-37
2021/12/07 06:09:23;;;;;;;6.05;1.65;;;;;;;;;;5052924;28;20056;-37
2021/12/07 06:11:50;;;;;;;3.13;1.73;;;;;;;;;;5052802;28;20597;-37
2021/12/07 06:14:19;;;;;;;4.40;1.70;;;;;;;;;;5052723;28;20120;-37
2021/12/07 06:16:45;;;;;;;3.28;1.38;;;;;;;;;;5052283;28;20067;-37
2021/12/07 06:19:10;;;;;;;4.97;1.65;;;;;;;;;;5052436;28;20036;-37
2021/12/07 06:21:35;;;;;;;2.42;1.70;;;;;;;;;;5052721;28;20021;-37
2021/12/07 06:24:01;;;;;;;2.78;1.42;;;;;;;;;;5052165;28;20043;-36
2021/12/07 06:26:26;;;;;;;3.20;1.60;;;;;;;;;;5052871;28;20032;-36
2021/12/07 06:28:52;;;;;;;2.92;1.73;;;;;;;;;;5052033;28;20041;-36
2021/12/07 06:31:17;;;;;;;6.60;1.83;;;;;;;;;;5052077;28;20025;-37
2021/12/07 06:33:42;;;;;;;3.13;2.42;;;;;;;;;;5052060;28;20037;-36
2021/12/07 06:36:08;;;;;;;5.03;1.80;;;;;;;;;;5052161;28;20038;-36
2021/12/07 06:38:34;;;;;;;2.65;1.33;;;;;;;;;;5051950;28;20048;-36
2021/12/07 06:41:00;;;;;;;4.07;2.45;;;;;;;;;;5051787;28;20029;-37
2021/12/07 06:43:26;;;;;;;5.88;1.95;;;;;;;;;;5050648;28;20407;-36
2021/12/07 06:45:52;;;;;;;2.90;1.63;;;;;;;;;;5050480;28;20028;-37
2021/12/07 06:48:18;;;;;;;2.70;1.58;;;;;;;;;;5050623;28;20040;-36
2021/12/07 06:50:44;;;;;;;3.00;1.50;;;;;;;;;;5052065;28;20423;-37
2021/12/07 06:53:09;;;;;;;4.93;1.80;;;;;;;;;;5052082;28;20036;-37
2021/12/07 06:55:35;;;;;;;3.72;1.77;;;;;;;;;;5051572;28;20102;-36
2021/12/07 06:58:01;;;;;;;5.43;1.73;;;;;;;;;;5051529;28;20056;-37
2021/12/07 07:00:26;;;;;;;3.50;1.75;;;;;;;;;;5051915;28;20025;-36
2021/12/07 07:02:52;;;;;;;3.40;2.30;;;;;;;;;;5051161;28;20438;-36
2021/12/07 07:05:17;;;;;;;5.00;2.80;;;;;;;;;;5051890;28;20148;-36
2021/12/07 07:07:43;;;;;;;4.03;1.83;;;;;;;;;;5051694;28;20021;-37
2021/12/07 07:10:10;;;;;;;6.10;1.85;;;;;;;;;;5050095;28;20119;-36
2021/12/07 07:12:36;;;;;;;5.93;2.25;;;;;;;;;;5051732;28;20033;-36
2021/12/07 07:15:02;;;;;;;3.83;1.88;;;;;;;;;;5050065;28;20075;-37
2021/12/07 07:17:27;;;;;;;4.75;2.50;;;;;;;;;;5051694;28;20123;-36
2021/12/07 07:19:53;;;;;;;3.30;1.73;;;;;;;;;;5051374;28;20088;-37
2021/12/07 07:22:18;;;;;;;2.95;2.15;;;;;;;;;;5051321;28;20051;-36
2021/12/07 07:24:45;;;;;;;4.20;2.38;;;;;;;;;;5051296;28;20021;-37
2021/12/07 07:27:11;;;;;;;4.07;1.77;;;;;;;;;;5051368;28;20025;-37
2021/12/07 07:29:36;;;;;;;5.65;1.67;;;;;;;;;;5051551;28;20372;-36
2021/12/07 07:32:02;;;;;;;1.38;1.25;;;;;;;;;;5051396;28;20083;-38
2021/12/07 07:34:28;;;;;;;5.22;2.60;;;;;;;;;;5051270;28;20028;-36
2021/12/07 07:36:53;;;;;;;8.90;2.92;;;;;;;;;;5051425;28;20029;-37
2021/12/07 07:39:19;;;;;;;10.82;4.43;;;;;;;;;;5051030;28;20496;-36
2021/12/07 07:41:48;;;;;;;11.07;4.18;;;;;;;;;;5051142;28;20021;-36
2021/12/07 07:44:13;;;;;;;9.20;3.65;;;;;;;;;;5051244;28;20551;-36
2021/12/07 07:46:44;;;;;;;17.05;5.78;;;;;;;;;;5049704;28;20078;-36
2021/12/07 07:49:10;;;;;;;21.45;6.55;;;;;;;;;;5051097;28;20032;-36
2021/12/07 07:51:36;;;;;;;13.55;5.13;;;;;;;;;;5051296;28;20025;-36
2021/12/07 07:54:03;;;;;;;18.38;4.85;;;;;;;;;;5050964;28;20403;-36
2021/12/07 07:56:28;;;;;;;9.80;3.20;;;;;;;;;;5049771;28;20135;-36
2021/12/07 07:58:55;;;;;;;8.02;3.67;;;;;;;;;;5050664;28;20108;-36
2021/12/07 08:01:21;;;;;;;10.75;2.65;;;;;;;;;;5051291;28;20021;-36
2021/12/07 08:03:46;;;;;;;5.78;2.88;;;;;;;;;;5050732;28;20529;-37
2021/12/07 08:06:12;;;;;;;6.25;2.25;;;;;;;;;;5050845;28;20115;-36
2021/12/07 08:08:37;;;;;;;6.00;2.47;;;;;;;;;;5050907;28;20033;-37
2021/12/07 08:11:03;;;;;;;7.25;3.58;;;;;;;;;;5050707;28;20062;-36
2021/12/07 08:13:30;;;;;;;6.47;2.45;;;;;;;;;;5050896;28;20033;-36
2021/12/07 08:15:56;;;;;;;3.50;2.35;;;;;;;;;;5053051;28;20029;-37
2021/12/07 08:18:22;;;;;;;6.65;3.72;;;;;;;;;;5053081;28;20116;-36
2021/12/07 08:20:47;;;;;;;6.13;2.65;;;;;;;;;;5054884;28;20104;-36
2021/12/07 08:23:13;;;;;;;2.92;2.05;;;;;;;;;;5054561;28;20479;-36
2021/12/07 08:25:41;;;;;;;3.10;2.00;;;;;;;;;;5054514;28;20032;-37
2021/12/07 08:28:07;;;;;;;5.90;2.05;;;;;;;;;;5054701;28;20111;-36
2021/12/07 08:30:34;;;;;;;3.40;1.83;;;;;;;;;;5054735;28;20024;-36
2021/12/07 08:32:59;;;;;;;5.70;2.63;;;;;;;;;;5053021;28;20068;-36
2021/12/07 08:35:24;;;;;;;3.08;2.22;;;;;;;;;;5054481;28;20048;-36
2021/12/07 08:37:50;;;;;;;4.90;2.47;;;;;;;;;;5054360;28;20031;-37
2021/12/07 08:40:20;;;;;;;8.20;3.63;;;;;;;;;;5054576;28;20040;-36
2021/12/07 08:42:46;;;;;;;4.78;3.33;;;;;;;;;;5054092;28;20087;-37
2021/12/07 08:45:11;;;;;;;9.52;4.10;;;;;;;;;;5054179;28;20029;-37
2021/12/07 08:47:37;;;;;;;6.47;3.47;;;;;;;;;;5054061;28;20036;-36
2021/12/07 08:50:04;;;;;;;11.98;3.50;;;;;;;;;;5054059;28;20094;-36
2021/12/07 08:52:29;;;;;;;9.20;3.15;;;;;;;;;;5054009;28;20170;-37
2021/12/07 09:00:06;;;;;;;7.38;2.20;;;;;;;;;;5053871;28;20044;-37
2021/12/07 09:02:33;;;;;;;12.68;4.43;;;;;;;;;;5053750;28;20067;-37
2021/12/07 09:04:58;;;;;;;4.95;3.15;;;;;;;;;;5053789;28;20480;-37
2021/12/07 09:07:24;;;;;;;4.93;2.50;;;;;;;;;;5053788;28;20036;-37
2021/12/07 09:09:50;;;;;;;6.63;2.28;;;;;;;;;;5053674;28;20032;-37
2021/12/07 09:12:17;;;;;;;4.38;2.70;;;;;;;;;;5053663;28;20020;-37
2021/12/07 09:14:43;;;;;;;4.60;2.50;;;;;;;;;;5053558;28;20029;-37
2021/12/07 09:17:09;;;;;;;5.93;3.10;;;;;;;;;;5053485;28;20013;-37
2021/12/07 09:19:34;;;;;;;6.38;3.00;;;;;;;;;;5053865;28;20137;-37
2021/12/07 09:22:00;;;;;;;8.10;2.45;;;;;;;;;;5053368;28;20043;-38
2021/12/07 09:24:26;;;;;;;4.82;2.40;;;;;;;;;;5053756;28;20391;-37
2021/12/07 09:26:51;;;;;;;6.45;3.05;;;;;;;;;;5053099;28;20028;-37
2021/12/07 09:29:16;;;;;;;4.43;1.95;;;;;;;;;;5053695;28;20518;-36
2021/12/07 09:31:42;;;;;;;3.03;2.17;;;;;;;;;;5053572;28;20014;-37
2021/12/07 09:34:09;;;;;;;4.43;2.25;;;;;;;;;;5053357;28;20033;-37
2021/12/07 09:36:35;;;;;;;3.55;2.15;;;;;;;;;;5053139;28;20464;-37
2021/12/07 09:39:00;;;;;;;3.42;2.45;;;;;;;;;;5052996;28;20051;-36
2021/12/07 09:41:26;;;;;;;1.80;1.23;;;;;;;;;;5053141;28;20116;-36
2021/12/07 09:43:52;;;;;;;2.72;1.90;;;;;;;;;;5052964;28;20120;-37
2021/12/07 09:46:17;;;;;;;2.38;1.77;;;;;;;;;;5053122;28;20023;-36
2021/12/07 09:48:45;;;;;;;6.15;1.98;;;;;;;;;;5052902;28;20037;-37
2021/12/07 09:51:14;;;;;;;3.35;2.05;;;;;;;;;;5053214;28;20039;-37
2021/12/07 09:53:39;;;;;;;3.92;2.65;;;;;;;;;;5053220;28;20115;-37
2021/12/07 09:56:06;;;;;;;6.50;2.42;;;;;;;;;;5052803;28;20104;-37
2021/12/07 09:58:32;;;;;;;3.67;2.50;;;;;;;;;;5052726;28;20040;-37
2021/12/07 10:00:57;;;;;;;4.10;2.38;;;;;;;;;;5052996;28;20029;-37
2021/12/07 10:03:23;;;;;;;3.80;2.70;;;;;;;;;;5052724;28;20408;-37
2021/12/07 10:05:49;;;;;;;5.50;2.35;;;;;;;;;;5052550;28;20046;-37
2021/12/07 10:08:14;;;;;;;5.20;1.83;;;;;;;;;;5052813;28;20033;-37
2021/12/07 10:10:44;;;;;;;3.00;2.00;;;;;;;;;;5052979;28;20036;-37
2021/12/07 10:13:11;;;;;;;4.28;2.08;;;;;;;;;;5052437;28;20033;-37
2021/12/07 10:15:37;;;;;;;5.75;2.80;;;;;;;;;;5051546;28;20379;-37
2021/12/07 10:18:03;;;;;;;3.05;2.15;;;;;;;;;;5052313;28;20064;-37
2021/12/07 10:20:41;;;;;;;2.35;1.60;;;;;;;;;;5052482;28;20541;-37
2021/12/07 10:23:21;;;;;;;2.75;2.03;;;;;;;;;;5052186;28;20528;-36
2021/12/07 10:25:59;;;;;;;4.32;1.35;;;;;;;;;;5050962;28;20041;-36
2021/12/07 10:28:27;;;;;;;3.85;2.10;;;;;;;;;;5052114;28;20486;-37
2021/12/07 10:30:53;;;;;;;2.42;1.70;;;;;;;;;;5052439;28;20029;-37
2021/12/07 10:33:29;;;;;;;3.35;1.92;;;;;;;;;;5052364;28;20033;-37
2021/12/07 10:36:17;;;;;;;2.63;1.92;;;;;;;;;;5051948;28;20029;-37
2021/12/07 10:38:49;;;;;;;3.70;2.17;;;;;;;;;;5048191;28;20052;-37
2021/12/07 10:41:21;;;;;;;3.67;2.25;;;;;;;;;;5052217;28;20040;-37
2021/12/07 10:43:49;;;;;;;2.45;2.15;;;;;;;;;;5051778;28;20120;-37
2021/12/07 10:46:30;;;;;;;4.38;2.55;;;;;;;;;;5051982;28;20123;-37
2021/12/07 10:49:10;;;;;;;2.28;1.33;;;;;;;;;;5051972;28;20422;-37
2021/12/07 10:51:36;;;;;;;3.20;1.85;;;;;;;;;;5051875;28;20037;-37
2021/12/07 10:54:02;;;;;;;2.63;1.67;;;;;;;;;;5051818;28;20024;-37
2021/12/07 10:56:31;;;;;;;2.75;1.98;;;;;;;;;;5051907;28;20052;-37
2021/12/07 10:59:05;;;;;;;2.72;2.00;;;;;;;;;;5051994;28;20025;-37
2021/12/07 11:01:35;;;;;;;2.13;1.83;;;;;;;;;;5051749;28;20036;-37
2021/12/07 11:04:19;;;;;;;3.40;1.90;;;;;;;;;;5051811;28;20075;-37
2021/12/07 11:07:03;;;;;;;2.08;1.33;;;;;;;;;;5051480;28;20032;-37
2021/12/07 11:09:29;;;;;;;8.18;1.77;;;;;;;;;;5051815;28;20131;-37
2021/12/07 11:12:07;;;;;;;3.17;2.13;;;;;;;;;;5051722;28;20035;-36
2021/12/07 11:14:49;;;;;;;4.10;2.10;;;;;;;;;;5051800;28;20087;-37
2021/12/07 11:17:16;;;;;;;4.75;2.35;;;;;;;;;;5051366;28;20040;-37
2021/12/07 11:19:41;;;;;;;3.55;2.15;;;;;;;;;;5051438;28;20083;-37
2021/12/07 11:22:07;;;;;;;3.45;1.30;;;;;;;;;;5051523;28;20406;-37
2021/12/07 11:24:36;;;;;;;3.35;1.88;;;;;;;;;;5051612;28;20024;-37
2021/12/07 11:30:10;;;;;;;1.77;1.20;;;;;;;;;;5051493;28;20032;-37
2021/12/07 11:32:35;;;;;;;2.50;1.98;;;;;;;;;;5051219;28;20471;-37
2021/12/07 11:35:18;;;;;;;5.78;2.55;;;;;;;;;;5051163;28;20028;-37
2021/12/07 11:37:44;;;;;;;3.42;2.20;;;;;;;;;;5051121;28;20692;-37
2021/12/07 11:40:10;;;;;;;5.43;2.58;;;;;;;;;;5051017;28;20049;-37
2021/12/07 11:42:41;;;;;;;4.78;1.85;;;;;;;;;;5051079;28;20037;-36
2021/12/07 11:45:17;;;;;;;2.20;1.50;;;;;;;;;;5051016;28;20495;-39
2021/12/07 11:47:47;;;;;;;1.58;1.30;;;;;;;;;;5051378;28;20415;-37
2021/12/07 11:50:15;;;;;;;3.53;2.00;;;;;;;;;;5052303;28;20052;-37
2021/12/07 11:52:41;;;;;;;1.58;1.27;;;;;;;;;;5055152;28;20107;-37
2021/12/07 11:55:06;;;;;;;2.65;1.45;;;;;;;;;;5055095;28;20112;-41
2021/12/07 11:57:32;;;;;;;4.30;1.95;;;;;;;;;;5055366;28;20059;-37
2021/12/07 11:59:57;;;;;;;2.97;1.45;;;;;;;;;;5055002;28;20024;-37
2021/12/07 12:02:24;;;;;;;3.33;1.30;;;;;;;;;;5055010;28;20025;-37
2021/12/07 12:04:50;;;;;;;2.00;1.52;;;;;;;;;;5054915;28;20120;-38
2021/12/07 12:07:17;;;;;;;2.67;1.65;;;;;;;;;;5054794;28;20121;-37
2021/12/07 12:09:48;;;;;;;2.80;1.35;;;;;;;;;;5054933;28;20029;-37
2021/12/07 12:12:14;;;;;;;2.28;1.08;;;;;;;;;;5055086;28;20116;-37
2021/12/07 12:14:59;;;;;;;1.65;0.93;;;;;;;;;;5054761;28;20108;-37
2021/12/07 12:17:36;;;;;;;2.53;1.00;;;;;;;;;;5043385;28;20119;-37
2021/12/07 12:20:25;;;;;;;2.60;1.30;;;;;;;;;;5054928;28;20455;-37
2021/12/07 12:23:09;;;;;;;1.70;1.20;;;;;;;;;;5054451;28;20040;-37
2021/12/07 12:25:35;;;;;;;1.17;0.95;;;;;;;;;;5054935;28;20033;-37
2021/12/07 12:28:01;;;;;;;9.63;1.25;;;;;;;;;;5054414;28;20036;-37
2021/12/07 12:30:31;;;;;;;1.98;1.00;;;;;;;;;;5054809;28;20116;-37
2021/12/07 12:33:07;;;;;;;0.95;0.90;;;;;;;;;;5054672;28;20120;-37
2021/12/07 12:35:32;;;;;;;1.25;0.85;;;;;;;;;;5054380;28;20025;-37
2021/12/07 12:37:57;;;;;;;1.88;0.95;;;;;;;;;;5054401;28;20028;-37
2021/12/07 12:40:23;;;;;;;0.88;0.82;;;;;;;;;;5054326;28;20036;-37
2021/12/07 12:42:53;;;;;;;1.45;1.27;;;;;;;;;;5054092;28;20036;-37
2021/12/07 12:45:26;;;;;;;3.92;1.20;;;;;;;;;;5054311;28;20108;-37
2021/12/07 12:47:59;;;;;;;1.38;1.20;;;;;;;;;;5053949;28;20037;-37
2021/12/07 12:50:27;;;;;;;0.70;0.45;;;;;;;;;;5054072;28;20033;-37
2021/12/07 12:52:59;;;;;;;2.75;1.55;;;;;;;;;;5054053;28;20024;-37
2021/12/07 12:55:27;;;;;;;1.42;1.10;;;;;;;;;;5053988;28;20040;-37
2021/12/07 12:57:53;;;;;;;2.78;1.17;;;;;;;;;;5053951;28;20059;-37
2021/12/07 13:00:19;;;;;;;1.80;0.82;;;;;;;;;;5053748;28;20060;-37
2021/12/07 13:02:49;;;;;;;1.13;0.73;;;;;;;;;;5053785;28;20059;-37
2021/12/07 13:05:16;;;;;;;0.65;0.60;;;;;;;;;;5054084;28;20056;-37
2021/12/07 13:07:41;;;;;;;1.08;0.95;;;;;;;;;;5054120;28;20111;-37
2021/12/07 13:10:07;;;;;;;8.13;1.20;;;;;;;;;;5052493;28;20454;-37
2021/12/07 13:12:34;;;;;;;0.55;0.30;;;;;;;;;;5054060;28;20383;-37
2021/12/07 13:14:59;;;;;;;0.77;0.77;;;;;;;;;;5053643;28;20033;-37
2021/12/07 13:17:29;;;;;;;0.82;0.50;;;;;;;;;;5053817;28;20028;-37
2021/12/07 13:20:06;;;;;;;0.35;0.35;;;;;;;;;;5053830;28;20064;-37
2021/12/07 13:22:36;;;;;;;0.52;0.52;;;;;;;;;;5053747;28;20430;-37
2021/12/07 13:25:11;;;;;;;3.65;0.88;;;;;;;;;;5053275;28;20041;-37
2021/12/07 13:27:39;;;;;;;0.75;0.70;;;;;;;;;;5053372;28;20040;-37
2021/12/07 13:30:06;;;;;;;0.40;0.40;;;;;;;;;;5053353;28;20036;-36
2021/12/07 13:32:31;;;;;;;0.85;0.60;;;;;;;;;;5053558;28;20060;-37
2021/12/07 13:35:01;;;;;;;1.02;0.88;;;;;;;;;;5053569;28;20460;-37
2021/12/07 13:37:44;;;;;;;0.57;0.45;;;;;;;;;;5053294;28;20647;-37
2021/12/07 13:40:20;;;;;;;1.52;0.85;;;;;;;;;;5053005;28;20377;-37
2021/12/07 13:42:47;;;;;;;0.65;0.32;;;;;;;;;;5053351;28;20042;-37
2021/12/07 13:45:17;;;;;;;0.47;0.47;;;;;;;;;;5053408;28;20108;-37
2021/12/07 13:47:43;;;;;;;0.57;0.57;;;;;;;;;;5053307;28;20051;-37
2021/12/07 13:50:11;;;;;;;1.90;0.65;;;;;;;;;;5053030;28;20402;-37
2021/12/07 13:52:43;;;;;;;0.50;0.50;;;;;;;;;;5052972;28;20739;-37
2021/12/07 13:55:10;;;;;;;1.07;0.80;;;;;;;;;;5053183;28;20037;-37
2021/12/07 13:57:36;;;;;;;0.70;0.60;;;;;;;;;;5052861;28;20021;-36
2021/12/07 14:00:08;;;;;;;2.05;1.00;;;;;;;;;;5052761;28;20032;-37
2021/12/07 14:02:41;;;;;;;1.08;0.50;;;;;;;;;;5052683;28;20124;-37
2021/12/07 14:05:15;;;;;;;0.90;0.90;;;;;;;;;;5052942;28;20043;-36
2021/12/07 14:07:41;;;;;;;0.73;0.65;;;;;;;;;;5052585;28;20033;-36
2021/12/07 14:10:23;;;;;;;2.20;1.33;;;;;;;;;;5052625;28;20518;-37
2021/12/07 14:12:50;;;;;;;1.08;0.90;;;;;;;;;;5051880;28;20028;-39
2021/12/07 14:15:25;;;;;;;0.60;0.60;;;;;;;;;;5052515;28;20424;-37
2021/12/07 14:17:53;;;;;;;2.45;1.73;;;;;;;;;;5052698;28;20045;-37
2021/12/07 14:20:42;;;;;;;1.63;1.13;;;;;;;;;;5052398;28;20153;-37
2021/12/07 14:23:25;;;;;;;1.17;1.00;;;;;;;;;;5049163;28;20132;-37
2021/12/07 14:25:54;;;;;;;0.82;0.82;;;;;;;;;;5052582;28;20035;-37
2021/12/07 14:28:31;;;;;;;2.05;0.90;;;;;;;;;;5052272;28;20467;-37
2021/12/07 14:30:57;;;;;;;1.25;1.02;;;;;;;;;;5052181;28;20579;-37
2021/12/07 14:33:23;;;;;;;2.33;1.20;;;;;;;;;;5051995;28;20021;-36
2021/12/07 14:35:49;;;;;;;2.15;1.10;;;;;;;;;;5052055;28;20283;-37
2021/12/07 14:38:14;;;;;;;1.30;1.08;;;;;;;;;;5051920;28;20040;-37
2021/12/07 14:40:43;;;;;;;4.47;1.20;;;;;;;;;;5052112;28;20032;-36
2021/12/07 14:43:09;;;;;;;4.18;1.45;;;;;;;;;;5051826;28;20033;-36
2021/12/07 14:45:35;;;;;;;1.83;1.30;;;;;;;;;;5052021;28;20131;-37
2021/12/07 14:48:01;;;;;;;1.13;1.02;;;;;;;;;;5052109;28;20150;-37
2021/12/07 14:50:26;;;;;;;3.35;1.40;;;;;;;;;;5051843;28;20059;-37
2021/12/07 14:52:52;;;;;;;0.95;0.68;;;;;;;;;;5051755;28;20044;-37
2021/12/07 14:55:18;;;;;;;1.58;1.25;;;;;;;;;;5051890;28;20487;-37
2021/12/07 14:57:43;;;;;;;1.95;1.42;;;;;;;;;;5051654;28;20472;-37
2021/12/07 15:00:09;;;;;;;7.93;1.55;;;;;;;;;;5051739;28;20116;-37
2021/12/07 15:02:36;;;;;;;1.63;1.15;;;;;;;;;;5051927;28;20057;-37
2021/12/07 15:05:04;;;;;;;2.58;1.20;;;;;;;;;;5051534;28;20508;-36
2021/12/07 15:07:34;;;;;;;2.75;1.48;;;;;;;;;;5051621;28;20025;-37
2021/12/07 15:10:00;;;;;;;1.48;1.17;;;;;;;;;;5051440;28;20035;-37
2021/12/07 15:12:26;;;;;;;2.63;1.52;;;;;;;;;;5051762;28;20418;-37
2021/12/07 15:14:58;;;;;;;1.80;1.00;;;;;;;;;;5050234;28;20029;-36
2021/12/07 15:17:24;;;;;;;1.08;0.95;;;;;;;;;;5051707;28;20025;-36
2021/12/07 15:19:50;;;;;;;2.88;1.58;;;;;;;;;;5051402;28;20105;-37
2021/12/07 15:22:16;;;;;;;4.60;1.60;;;;;;;;;;5051370;28;20112;-37
2021/12/07 15:24:41;;;;;;;2.90;1.58;;;;;;;;;;5051197;28;20033;-37
2021/12/07 15:27:07;;;;;;;2.05;1.38;;;;;;;;;;5051449;28;20029;-37
2021/12/07 15:29:33;;;;;;;4.82;2.03;;;;;;;;;;5051544;28;20025;-37
2021/12/07 15:32:02;;;;;;;2.85;1.67;;;;;;;;;;5051142;28;20360;-37
2021/12/07 15:34:29;;;;;;;3.80;2.25;;;;;;;;;;5051258;28;20029;-37
2021/12/07 15:36:56;;;;;;;4.78;3.22;;;;;;;;;;5051138;28;20029;-36
2021/12/07 15:39:25;;;;;;;3.42;2.67;;;;;;;;;;5051066;28;20068;-37
2021/12/07 15:41:55;;;;;;;4.78;3.38;;;;;;;;;;5049959;28;20029;-37
2021/12/07 15:44:28;;;;;;;5.00;2.63;;;;;;;;;;5051152;28;20041;-36
2021/12/07 15:46:59;;;;;;;4.28;2.63;;;;;;;;;;5050979;28;20463;-36
2021/12/07 15:49:44;;;;;;;7.18;2.15;;;;;;;;;;5051389;28;20045;-37
2021/12/07 15:52:12;;;;;;;2.80;1.67;;;;;;;;;;5047129;28;20033;-37
2021/12/07 15:54:38;;;;;;;3.53;2.00;;;;;;;;;;5051007;28;20013;-37
2021/12/07 15:57:06;;;;;;;2.67;1.30;;;;;;;;;;5051227;28;20037;-36
2021/12/07 15:59:32;;;;;;;1.50;1.40;;;;;;;;;;5051352;28;20025;-36
2021/12/07 16:01:58;;;;;;;2.03;1.48;;;;;;;;;;5049730;28;20025;-37
2021/12/07 16:04:29;;;;;;;2.40;1.40;;;;;;;;;;5050939;28;20532;-36
2021/12/07 16:06:54;;;;;;;2.38;1.42;;;;;;;;;;5050833;28;20083;-37
2021/12/07 16:09:20;;;;;;;4.90;1.40;;;;;;;;;;5051006;28;20016;-36
2021/12/07 16:11:46;;;;;;;1.63;1.52;;;;;;;;;;5050948;28;20539;-37
2021/12/07 16:14:22;;;;;;;8.13;1.35;;;;;;;;;;5050836;28;20112;-36
2021/12/07 16:16:48;;;;;;;2.45;2.20;;;;;;;;;;5051030;28;20037;-37
2021/12/07 16:19:13;;;;;;;2.03;1.20;;;;;;;;;;5051096;28;20079;-36
2021/12/07 16:21:38;;;;;;;3.58;1.58;;;;;;;;;;5049662;28;20546;-37
2021/12/07 16:24:07;;;;;;;1.92;1.05;;;;;;;;;;5050620;28;20033;-38
2021/12/07 16:26:33;;;;;;;1.70;1.33;;;;;;;;;;5051032;28;20024;-37